Time;durP1;ratioP1;P1;durP2;ratioP2;P2;SDS_P1;SDS_P2;PMS_P1;PMS_P2;Temp;Humidity;BMP_temperature;BMP_pressure;BME280_temperature;BME280_humidity;BME280_pressure;Samples;Min_cycle;Max_cycle;Signal;HPM_P1;HPM_P2
2022/07/06 00:00:32;;;;;;;4.03;2.20;;;14.70;99.90;;;;;;5052618;28;20025;-58
2022/07/06 00:02:57;;;;;;;5.30;2.85;;;14.40;99.90;;;;;;5050511;28;20025;-58
2022/07/06 00:05:23;;;;;;;5.90;2.60;;;14.50;99.90;;;;;;5049092;28;20047;-58
2022/07/06 00:07:48;;;;;;;4.95;2.63;;;14.40;99.90;;;;;;5052226;28;20090;-57
2022/07/06 00:10:14;;;;;;;5.13;2.85;;;14.40;99.90;;;;;;5057865;28;20124;-58
2022/07/06 00:12:40;;;;;;;3.97;2.38;;;14.10;99.90;;;;;;5056466;28;20028;-57
2022/07/06 00:15:07;;;;;;;6.05;2.67;;;;;;;;;;5047484;28;20021;-56
2022/07/06 00:17:32;;;;;;;5.65;2.92;;;14.30;99.90;;;;;;5047252;28;20720;-59
2022/07/06 00:19:58;;;;;;;7.38;2.58;;;14.20;99.90;;;;;;5056040;28;20029;-58
2022/07/06 00:22:23;;;;;;;7.18;2.80;;;13.70;99.90;;;;;;5055879;28;20416;-57
2022/07/06 00:24:49;;;;;;;5.32;2.85;;;14.40;99.90;;;;;;5052773;28;20025;-58
2022/07/06 00:27:15;;;;;;;3.58;2.92;;;13.70;99.90;;;;;;5054643;28;20452;-58
2022/07/06 00:29:43;;;;;;;4.05;2.80;;;13.80;99.90;;;;;;5054929;28;20646;-58
2022/07/06 00:32:12;;;;;;;6.65;3.28;;;13.90;99.90;;;;;;5060264;28;20051;-58
2022/07/06 00:34:39;;;;;;;4.22;3.00;;;13.70;99.90;;;;;;5046055;28;20024;-59
2022/07/06 00:37:06;;;;;;;6.90;3.00;;;13.80;99.90;;;;;;5056072;28;20021;-56
2022/07/06 00:39:32;;;;;;;4.88;2.78;;;13.70;99.90;;;;;;5049701;28;20029;-58
2022/07/06 00:41:57;;;;;;;4.07;2.60;;;13.60;99.90;;;;;;5053764;28;21428;-58
2022/07/06 00:44:23;;;;;;;7.05;3.13;;;12.90;99.90;;;;;;5049846;28;20220;-57
2022/07/06 00:46:49;;;;;;;5.88;3.30;;;13.50;99.90;;;;;;5048959;28;20029;-57
2022/07/06 00:51:59;;;;;;;5.47;3.13;;;13.60;99.90;;;;;;5054771;28;20094;-59
2022/07/06 00:54:26;;;;;;;4.95;3.25;;;13.70;99.90;;;;;;5056641;28;20034;-56
2022/07/06 00:56:52;;;;;;;5.70;3.35;;;13.60;99.90;;;;;;5048881;28;20023;-57
2022/07/06 00:59:18;;;;;;;3.78;2.90;;;13.60;99.90;;;;;;5045432;28;20036;-56
2022/07/06 01:01:44;;;;;;;5.85;3.40;;;13.60;99.90;;;;;;5055763;28;20064;-58
2022/07/06 01:04:09;;;;;;;6.43;3.60;;;13.60;99.90;;;;;;5056315;28;20067;-57
2022/07/06 01:06:35;;;;;;;5.63;3.30;;;13.60;99.90;;;;;;5036383;28;20040;-59
2022/07/06 01:09:01;;;;;;;6.18;3.10;;;13.60;99.90;;;;;;5051261;28;20112;-58
2022/07/06 01:11:27;;;;;;;3.60;3.03;;;13.60;99.90;;;;;;5056063;28;20112;-58
2022/07/06 01:13:55;;;;;;;4.60;3.15;;;13.30;99.90;;;;;;5055886;28;20032;-57
2022/07/06 01:16:21;;;;;;;4.70;3.35;;;13.40;99.90;;;;;;5043322;28;20036;-57
2022/07/06 01:18:47;;;;;;;6.53;3.47;;;13.40;99.90;;;;;;5053061;28;20017;-57
2022/07/06 01:21:14;;;;;;;4.57;3.17;;;13.50;99.90;;;;;;5048550;28;20056;-57
2022/07/06 01:23:45;;;;;;;5.90;3.15;;;13.40;99.90;;;;;;5055445;28;20028;-57
2022/07/06 01:26:14;;;;;;;6.97;3.13;;;13.40;99.90;;;;;;5054704;28;20388;-58
2022/07/06 01:28:40;;;;;;;5.00;3.70;;;13.40;99.90;;;;;;5052310;28;20048;-59
2022/07/06 01:31:05;;;;;;;4.45;2.80;;;12.30;99.90;;;;;;5052806;28;20146;-58
2022/07/06 01:33:34;;;;;;;4.72;3.17;;;;;;;;;;5050396;28;20075;-56
2022/07/06 01:36:00;;;;;;;4.63;2.83;;;13.50;99.90;;;;;;5046557;28;20371;-59
2022/07/06 01:38:25;;;;;;;6.68;3.38;;;13.20;99.90;;;;;;5045840;28;20033;-56
2022/07/06 01:40:51;;;;;;;4.38;2.97;;;12.60;99.90;;;;;;5047602;28;20025;-58
2022/07/06 01:43:18;;;;;;;5.18;2.88;;;;;;;;;;5048385;28;20035;-57
2022/07/06 01:45:43;;;;;;;4.97;3.20;;;12.90;99.90;;;;;;5046995;28;20105;-59
2022/07/06 01:48:09;;;;;;;6.68;3.55;;;13.00;99.90;;;;;;5049753;28;20052;-58
2022/07/06 01:50:35;;;;;;;7.25;2.90;;;13.10;99.90;;;;;;5053928;28;20612;-58
2022/07/06 01:53:00;;;;;;;5.68;3.13;;;13.00;99.90;;;;;;5061305;28;20028;-57
2022/07/06 01:55:26;;;;;;;5.10;2.65;;;12.90;99.90;;;;;;5053603;28;20029;-57
2022/07/06 01:57:51;;;;;;;5.25;3.15;;;12.90;99.90;;;;;;5054056;28;20020;-57
2022/07/06 02:00:17;;;;;;;5.53;3.33;;;12.80;99.90;;;;;;5051074;28;20215;-57
2022/07/06 02:02:42;;;;;;;5.07;3.47;;;12.90;99.90;;;;;;5049908;28;20110;-56
2022/07/06 02:05:08;;;;;;;5.18;3.28;;;13.00;99.90;;;;;;5045404;28;20062;-58
2022/07/06 02:07:34;;;;;;;4.70;3.22;;;13.00;99.90;;;;;;5047858;28;20032;-57
2022/07/06 02:09:59;;;;;;;5.75;3.35;;;13.00;99.90;;;;;;5055349;28;20039;-58
2022/07/06 02:12:25;;;;;;;5.82;3.38;;;13.00;99.90;;;;;;5053765;28;20056;-57
2022/07/06 02:14:50;;;;;;;4.15;3.10;;;13.00;99.90;;;;;;5052019;28;20381;-58
2022/07/06 02:17:16;;;;;;;4.20;2.88;;;12.90;99.90;;;;;;5045536;28;20037;-57
2022/07/06 02:19:42;;;;;;;4.10;3.45;;;13.00;99.90;;;;;;5049920;28;20070;-58
2022/07/06 02:22:07;;;;;;;7.95;3.22;;;12.80;99.90;;;;;;5056726;28;20021;-57
2022/07/06 02:24:33;;;;;;;3.70;2.90;;;12.70;99.90;;;;;;5049949;28;20555;-56
2022/07/06 02:26:58;;;;;;;4.95;3.38;;;12.70;99.90;;;;;;5044316;28;20041;-58
2022/07/06 02:29:25;;;;;;;4.72;3.13;;;12.70;99.90;;;;;;5046703;28;20112;-57
2022/07/06 02:31:51;;;;;;;7.65;3.40;;;12.70;99.90;;;;;;5046000;28;20114;-56
2022/07/06 02:34:17;;;;;;;7.05;3.33;;;12.70;99.90;;;;;;5049772;28;20437;-57
2022/07/06 02:36:42;;;;;;;5.40;3.10;;;12.70;99.90;;;;;;5052892;28;20104;-58
2022/07/06 02:39:08;;;;;;;5.25;3.60;;;12.80;99.90;;;;;;5043098;28;20049;-59
2022/07/06 02:41:33;;;;;;;5.53;3.80;;;12.70;99.90;;;;;;5051861;28;20075;-57
2022/07/06 02:43:59;;;;;;;5.40;3.47;;;12.70;99.90;;;;;;5053677;28;20095;-57
2022/07/06 02:46:24;;;;;;;6.25;4.03;;;12.70;99.90;;;;;;5053240;28;20086;-57
2022/07/06 02:48:50;;;;;;;8.52;4.32;;;12.70;99.90;;;;;;5041153;28;20028;-57
2022/07/06 02:51:15;;;;;;;6.32;4.05;;;12.70;99.90;;;;;;5041796;28;20034;-57
2022/07/06 02:53:41;;;;;;;4.90;3.97;;;12.70;99.90;;;;;;5045652;28;20024;-57
2022/07/06 02:56:07;;;;;;;9.20;4.70;;;12.70;99.90;;;;;;5054719;28;20363;-57
2022/07/06 02:58:32;;;;;;;9.50;4.38;;;12.60;99.90;;;;;;5046469;28;20025;-58
2022/07/06 03:00:58;;;;;;;5.18;4.10;;;12.60;99.90;;;;;;5043700;28;20087;-56
2022/07/06 03:03:23;;;;;;;7.40;4.07;;;12.60;99.90;;;;;;5049421;28;20046;-57
2022/07/06 03:05:49;;;;;;;5.80;4.00;;;12.60;99.90;;;;;;5039394;28;20029;-58
2022/07/06 03:08:15;;;;;;;7.05;4.38;;;12.50;99.90;;;;;;5048158;28;20105;-57
2022/07/06 03:10:41;;;;;;;7.15;3.97;;;12.40;99.90;;;;;;5052824;28;20435;-58
2022/07/06 03:13:06;;;;;;;5.97;4.18;;;12.50;99.90;;;;;;5049946;28;20037;-57
2022/07/06 03:15:32;;;;;;;6.60;4.40;;;12.50;99.90;;;;;;5053860;28;20641;-57
2022/07/06 03:17:57;;;;;;;6.28;4.40;;;12.40;99.90;;;;;;5046642;28;20062;-57
2022/07/06 03:20:23;;;;;;;5.45;4.03;;;12.40;99.90;;;;;;5049945;28;20017;-57
2022/07/06 03:22:48;;;;;;;6.05;4.70;;;12.50;99.90;;;;;;5049056;28;20033;-58
2022/07/06 03:25:14;;;;;;;11.45;5.15;;;12.50;99.90;;;;;;5048102;28;20097;-58
2022/07/06 03:27:39;;;;;;;8.63;4.72;;;12.60;99.90;;;;;;5042939;28;20112;-56
2022/07/06 03:30:05;;;;;;;8.27;4.28;;;12.40;99.90;;;;;;5053628;28;20029;-58
2022/07/06 03:32:31;;;;;;;5.90;4.47;;;12.40;99.90;;;;;;5051112;28;20041;-57
2022/07/06 03:34:57;;;;;;;10.50;5.03;;;12.40;99.90;;;;;;5059315;28;20028;-58
2022/07/06 03:37:23;;;;;;;5.70;4.30;;;12.50;99.90;;;;;;5058757;28;20035;-57
2022/07/06 03:39:48;;;;;;;5.75;4.57;;;12.40;99.90;;;;;;5054341;28;20036;-58
2022/07/06 03:42:14;;;;;;;5.85;4.75;;;12.40;99.90;;;;;;5056203;28;20427;-56
2022/07/06 03:44:39;;;;;;;7.25;4.72;;;12.50;99.90;;;;;;5044288;28;20042;-58
2022/07/06 03:47:05;;;;;;;17.00;5.60;;;12.50;99.90;;;;;;5056769;28;20043;-57
2022/07/06 03:49:30;;;;;;;7.32;5.35;;;12.50;99.90;;;;;;5054260;28;20035;-58
2022/07/06 03:51:56;;;;;;;8.98;5.07;;;12.60;99.90;;;;;;5053341;28;20091;-56
2022/07/06 03:54:21;;;;;;;6.10;5.22;;;12.60;99.90;;;;;;5058694;28;20063;-56
2022/07/06 03:56:47;;;;;;;7.10;5.50;;;12.70;99.90;;;;;;5056281;28;20030;-59
2022/07/06 03:59:14;;;;;;;11.07;6.05;;;12.70;99.90;;;;;;5044089;28;20333;-57
2022/07/06 04:01:40;;;;;;;9.70;5.55;;;12.60;99.90;;;;;;5054470;28;20032;-56
2022/07/06 04:04:06;;;;;;;11.13;5.95;;;12.80;99.90;;;;;;5049788;28;20667;-58
2022/07/06 04:06:31;;;;;;;9.15;5.85;;;12.80;99.90;;;;;;5048104;28;20033;-56
2022/07/06 04:08:57;;;;;;;7.95;5.65;;;12.90;99.90;;;;;;5043282;28;20115;-58
2022/07/06 04:11:22;;;;;;;11.35;5.90;;;13.00;99.90;;;;;;5050109;28;20025;-58
2022/07/06 04:13:48;;;;;;;10.30;6.03;;;12.90;99.90;;;;;;5059508;28;20625;-57
2022/07/06 04:16:13;;;;;;;11.10;5.95;;;12.80;99.90;;;;;;5053513;28;20029;-57
2022/07/06 04:18:39;;;;;;;11.65;5.43;;;12.80;99.90;;;;;;5050955;28;20036;-56
2022/07/06 04:21:05;;;;;;;8.82;5.82;;;12.90;99.90;;;;;;5055673;28;20033;-58
2022/07/06 04:23:30;;;;;;;9.30;5.53;;;12.90;99.90;;;;;;5057120;28;20484;-57
2022/07/06 04:25:56;;;;;;;10.00;6.00;;;12.90;99.90;;;;;;5058654;28;20063;-57
2022/07/06 04:28:22;;;;;;;11.15;6.38;;;13.10;99.90;;;;;;5050617;28;20569;-59
2022/07/06 04:30:47;;;;;;;12.02;5.95;;;13.10;99.90;;;;;;5042075;28;20175;-57
2022/07/06 04:33:13;;;;;;;7.65;5.90;;;13.30;99.90;;;;;;5043184;28;20025;-58
2022/07/06 04:35:38;;;;;;;10.43;5.95;;;13.30;99.90;;;;;;5062722;28;20032;-56
2022/07/06 04:38:04;;;;;;;9.77;5.80;;;13.40;99.90;;;;;;5053849;28;20028;-57
2022/07/06 04:40:30;;;;;;;11.52;6.00;;;13.30;99.90;;;;;;5053114;28;20598;-57
2022/07/06 04:42:56;;;;;;;10.95;5.70;;;13.40;99.90;;;;;;5046944;28;20096;-58
2022/07/06 04:45:21;;;;;;;8.52;5.90;;;13.20;99.90;;;;;;5048852;28;20166;-57
2022/07/06 04:47:47;;;;;;;10.90;6.00;;;13.30;99.90;;;;;;5048831;28;20104;-58
2022/07/06 04:50:13;;;;;;;8.88;6.32;;;13.20;99.90;;;;;;5053202;28;20036;-57
2022/07/06 04:52:38;;;;;;;10.02;5.93;;;13.30;99.90;;;;;;5057360;28;20497;-57
2022/07/06 04:55:05;;;;;;;10.68;6.35;;;13.60;99.90;;;;;;5058990;28;20047;-57
2022/07/06 04:57:31;;;;;;;10.65;6.40;;;13.60;99.90;;;;;;5055243;28;20420;-57
2022/07/06 04:59:57;;;;;;;8.82;6.05;;;13.60;99.90;;;;;;5045089;28;20021;-58
2022/07/06 05:02:23;;;;;;;11.05;5.72;;;13.50;99.90;;;;;;5053428;28;20043;-57
2022/07/06 05:04:48;;;;;;;10.43;6.15;;;13.50;99.90;;;;;;5040150;28;20068;-57
2022/07/06 05:07:14;;;;;;;10.48;5.82;;;13.50;99.90;;;;;;5042552;28;20032;-57
2022/07/06 05:09:40;;;;;;;10.82;5.95;;;13.70;99.90;;;;;;5053826;28;20039;-57
2022/07/06 05:12:06;;;;;;;9.90;5.75;;;13.70;99.90;;;;;;5049309;28;20503;-56
2022/07/06 05:14:32;;;;;;;11.88;6.15;;;13.70;99.90;;;;;;5053348;28;20434;-57
2022/07/06 05:16:57;;;;;;;12.45;5.68;;;13.80;99.90;;;;;;5054191;28;20040;-57
2022/07/06 05:19:24;;;;;;;10.43;6.47;;;13.60;99.90;;;;;;5048726;28;20384;-57
2022/07/06 05:21:49;;;;;;;11.88;5.95;;;13.70;99.90;;;;;;5042467;28;20020;-59
2022/07/06 05:24:18;;;;;;;10.40;5.90;;;13.80;99.90;;;;;;5053006;28;20040;-57
2022/07/06 05:26:44;;;;;;;11.10;7.35;;;13.60;99.90;;;;;;5049716;28;20035;-57
2022/07/06 05:29:10;;;;;;;9.57;6.40;;;13.70;99.90;;;;;;5057655;28;20032;-58
2022/07/06 05:31:36;;;;;;;10.40;6.20;;;13.70;99.90;;;;;;5052646;28;20063;-57
2022/07/06 05:34:02;;;;;;;9.60;6.22;;;13.80;99.90;;;;;;5053466;28;20033;-57
2022/07/06 05:36:27;;;;;;;13.55;5.93;;;13.90;99.90;;;;;;5051517;28;20508;-57
2022/07/06 05:38:53;;;;;;;9.13;5.85;;;14.10;99.90;;;;;;5047681;28;20044;-59
2022/07/06 05:41:19;;;;;;;10.02;5.43;;;13.90;99.90;;;;;;5047531;28;20024;-59
2022/07/06 05:43:48;;;;;;;8.68;5.30;;;14.00;99.90;;;;;;5051411;28;20036;-57
2022/07/06 05:46:13;;;;;;;8.63;6.00;;;14.10;99.90;;;;;;5050744;28;20550;-59
2022/07/06 05:51:23;;;;;;;10.10;5.40;;;14.40;99.90;;;;;;5057489;28;20036;-57
2022/07/06 05:53:48;;;;;;;9.70;5.82;;;14.50;99.90;;;;;;5054475;28;20033;-58
2022/07/06 05:56:14;;;;;;;11.63;5.63;;;14.40;99.90;;;;;;5050808;28;20569;-58
2022/07/06 05:58:42;;;;;;;11.10;5.10;;;14.50;99.90;;;;;;5055154;28;20056;-57
2022/07/06 06:01:08;;;;;;;7.60;5.35;;;14.60;99.90;;;;;;5048673;28;20107;-57
2022/07/06 06:03:34;;;;;;;10.10;4.97;;;14.70;99.90;;;;;;5056599;28;20185;-57
2022/07/06 06:06:00;;;;;;;10.38;5.03;;;14.70;99.90;;;;;;5050263;28;20526;-58
2022/07/06 06:08:25;;;;;;;12.05;5.25;;;14.90;99.90;;;;;;5044829;28;20041;-57
2022/07/06 06:10:52;;;;;;;8.63;5.70;;;14.80;99.90;;;;;;5045482;28;20025;-57
2022/07/06 06:13:18;;;;;;;7.00;4.65;;;14.90;99.90;;;;;;5048281;28;20117;-57
2022/07/06 06:15:43;;;;;;;9.55;5.00;;;14.80;99.90;;;;;;5041630;28;20104;-57
2022/07/06 06:18:09;;;;;;;7.47;4.05;;;14.70;99.90;;;;;;5051008;28;20075;-58
2022/07/06 06:20:35;;;;;;;8.93;4.60;;;14.50;99.90;;;;;;5049197;28;20699;-57
2022/07/06 06:23:03;;;;;;;8.63;4.25;;;14.20;99.90;;;;;;5051943;28;20029;-57
2022/07/06 06:25:36;;;;;;;6.95;4.40;;;14.30;99.90;;;;;;5047297;28;20021;-57
2022/07/06 06:28:04;;;;;;;5.82;4.20;;;14.40;99.90;;;;;;5047725;28;20047;-58
2022/07/06 06:30:30;;;;;;;8.48;4.05;;;14.40;99.90;;;;;;5040902;28;20589;-57
2022/07/06 06:33:16;;;;;;;10.77;3.95;;;14.50;99.90;;;;;;5054250;28;20036;-57
2022/07/06 06:35:51;;;;;;;9.85;4.60;;;14.60;99.90;;;;;;5044147;28;20014;-58
2022/07/06 06:38:18;;;;;;;8.60;4.05;;;14.70;99.90;;;;;;5046499;28;20435;-58
2022/07/06 06:40:44;;;;;;;8.20;4.30;;;14.60;99.90;;;;;;5042687;28;20028;-56
2022/07/06 06:43:10;;;;;;;7.78;4.03;;;14.60;99.90;;;;;;5047877;28;20102;-57
2022/07/06 06:45:35;;;;;;;7.80;3.85;;;14.80;99.90;;;;;;5043600;28;20036;-58
2022/07/06 06:48:01;;;;;;;7.55;4.30;;;15.00;99.90;;;;;;5049286;28;20082;-57
2022/07/06 06:50:27;;;;;;;6.20;4.32;;;15.30;99.90;;;;;;5046185;28;20056;-58
2022/07/06 06:52:53;;;;;;;5.75;3.83;;;15.40;99.90;;;;;;5048357;28;20473;-59
2022/07/06 06:55:18;;;;;;;6.40;3.80;;;15.70;99.90;;;;;;5044654;28;20037;-58
2022/07/06 06:57:44;;;;;;;5.20;4.03;;;15.80;99.90;;;;;;5056545;28;20789;-58
2022/07/06 07:00:11;;;;;;;8.80;4.07;;;15.80;99.90;;;;;;5061054;28;20028;-57
2022/07/06 07:02:36;;;;;;;7.75;3.90;;;16.00;99.90;;;;;;5046598;28;20104;-58
2022/07/06 07:05:03;;;;;;;9.82;3.63;;;15.80;99.90;;;;;;5041322;28;20157;-58
2022/07/06 07:07:28;;;;;;;10.32;3.78;;;15.70;99.90;;;;;;5051621;28;20116;-59
2022/07/06 07:09:54;;;;;;;7.35;3.72;;;15.70;99.90;;;;;;5052651;28;20531;-58
2022/07/06 07:12:19;;;;;;;7.90;3.40;;;15.90;99.90;;;;;;5052801;28;20621;-58
2022/07/06 07:14:45;;;;;;;7.88;3.28;;;16.10;99.90;;;;;;5045671;28;20309;-58
2022/07/06 07:17:11;;;;;;;7.28;3.17;;;16.10;99.90;;;;;;5056075;28;20136;-58
2022/07/06 07:19:37;;;;;;;7.55;2.67;;;16.10;99.90;;;;;;5050918;28;20375;-57
2022/07/06 07:22:03;;;;;;;5.18;2.40;;;16.20;99.90;;;;;;5046934;28;20074;-57
2022/07/06 07:24:28;;;;;;;6.63;2.35;;;16.30;99.90;;;;;;5049293;28;20442;-58
2022/07/06 07:26:54;;;;;;;4.82;2.03;;;16.20;99.90;;;;;;5055328;28;20021;-58
2022/07/06 07:29:20;;;;;;;5.00;2.13;;;16.10;99.90;;;;;;5055947;28;20074;-57
2022/07/06 07:31:45;;;;;;;6.05;2.10;;;16.00;99.90;;;;;;5059321;28;20036;-58
2022/07/06 07:34:11;;;;;;;5.50;1.80;;;16.30;99.90;;;;;;5058657;28;20040;-58
2022/07/06 07:36:36;;;;;;;6.20;1.75;;;16.70;99.90;;;;;;5060687;28;20020;-58
2022/07/06 07:39:03;;;;;;;5.93;1.67;;;16.70;99.90;;;;;;5059199;28;20057;-58
2022/07/06 07:41:28;;;;;;;3.63;1.45;;;16.40;99.90;;;;;;5054484;28;20033;-57
2022/07/06 07:43:54;;;;;;;4.68;1.67;;;16.60;99.90;;;;;;5049796;28;20013;-57
2022/07/06 07:46:19;;;;;;;11.88;5.57;;;16.60;99.90;;;;;;5052633;28;20055;-59
2022/07/06 07:48:45;;;;;;;5.78;1.50;;;16.60;99.90;;;;;;5056297;28;20025;-57
2022/07/06 07:51:10;;;;;;;4.35;1.15;;;16.50;99.90;;;;;;5059381;28;20031;-58
2022/07/06 07:53:36;;;;;;;2.25;1.10;;;16.70;99.90;;;;;;5052367;28;20029;-59
2022/07/06 07:56:02;;;;;;;6.85;1.65;;;16.70;99.90;;;;;;5059162;28;20025;-57
2022/07/06 07:58:27;;;;;;;6.57;1.50;;;16.90;99.90;;;;;;5052556;28;20071;-58
2022/07/06 08:00:53;;;;;;;8.07;1.58;;;17.10;99.90;;;;;;5058012;28;20035;-58
2022/07/06 08:03:19;;;;;;;2.83;1.50;;;16.70;99.90;;;;;;5039935;28;20072;-58
2022/07/06 08:05:46;;;;;;;3.33;1.23;;;17.00;99.90;;;;;;5045284;28;20029;-57
2022/07/06 08:08:12;;;;;;;6.30;1.60;;;17.20;99.90;;;;;;5043821;28;20033;-57
2022/07/06 08:10:37;;;;;;;3.15;1.77;;;17.20;99.90;;;;;;5052906;28;20640;-58
2022/07/06 08:13:03;;;;;;;6.90;2.00;;;16.90;99.90;;;;;;5052676;28;20938;-58
2022/07/06 08:15:29;;;;;;;8.32;1.67;;;16.90;99.90;;;;;;5050778;28;20479;-58
2022/07/06 08:17:54;;;;;;;4.80;1.90;;;16.90;99.90;;;;;;5041481;28;20659;-57
2022/07/06 08:20:20;;;;;;;5.05;1.65;;;16.70;99.90;;;;;;5042078;28;20396;-59
2022/07/06 08:22:45;;;;;;;4.55;1.55;;;16.80;99.90;;;;;;5044060;28;20583;-58
2022/07/06 08:25:11;;;;;;;7.75;1.55;;;16.70;99.90;;;;;;5043069;28;20024;-58
2022/07/06 08:27:37;;;;;;;4.78;1.25;;;17.10;99.90;;;;;;5045036;28;20545;-57
2022/07/06 08:30:04;;;;;;;4.80;1.40;;;17.20;99.90;;;;;;5043760;28;20036;-57
2022/07/06 08:32:30;;;;;;;5.43;1.73;;;17.20;99.90;;;;;;5048975;28;20078;-58
2022/07/06 08:34:55;;;;;;;6.22;1.85;;;17.20;99.90;;;;;;5047086;28;20647;-58
2022/07/06 08:37:21;;;;;;;5.25;1.30;;;17.30;99.90;;;;;;5042646;28;20010;-58
2022/07/06 08:39:46;;;;;;;3.75;1.27;;;17.40;99.90;;;;;;5047269;28;20033;-58
2022/07/06 08:42:14;;;;;;;6.07;1.33;;;17.80;99.90;;;;;;5037629;28;20087;-59
2022/07/06 08:44:40;;;;;;;4.70;1.00;;;18.00;99.90;;;;;;5047500;28;20629;-59
2022/07/06 08:47:07;;;;;;;1.92;1.13;;;17.90;99.90;;;;;;5043178;28;20082;-58
2022/07/06 08:49:34;;;;;;;4.25;0.90;;;18.10;99.90;;;;;;5043210;28;20060;-57
2022/07/06 08:52:00;;;;;;;5.35;1.30;;;18.10;99.90;;;;;;5043923;28;20037;-57
2022/07/06 08:54:26;;;;;;;4.20;1.10;;;18.20;99.90;;;;;;5043193;28;20017;-58
2022/07/06 08:56:52;;;;;;;2.30;0.75;;;18.60;99.90;;;;;;5045656;28;20029;-57
2022/07/06 08:59:18;;;;;;;5.57;0.90;;;18.30;99.90;;;;;;5047065;28;20024;-57
2022/07/06 09:01:46;;;;;;;4.28;1.00;;;18.40;99.90;;;;;;5045888;28;20092;-58
2022/07/06 09:04:15;;;;;;;4.05;0.98;;;18.40;99.90;;;;;;5045113;28;20358;-56
2022/07/06 09:06:42;;;;;;;1.70;0.80;;;18.30;99.90;;;;;;5039698;28;20051;-57
2022/07/06 09:09:09;;;;;;;3.33;1.05;;;18.40;99.90;;;;;;5043373;28;20479;-57
2022/07/06 09:11:37;;;;;;;6.60;1.20;;;18.50;99.90;;;;;;5042851;28;20032;-57
2022/07/06 09:14:03;;;;;;;3.63;0.90;;;18.50;99.90;;;;;;5045080;28;20029;-57
2022/07/06 09:16:29;;;;;;;1.63;0.70;;;18.70;99.90;;;;;;5048409;28;20472;-58
2022/07/06 09:18:55;;;;;;;3.33;1.00;;;18.50;99.90;;;;;;5042929;28;20021;-58
2022/07/06 09:21:26;;;;;;;3.13;0.75;;;18.30;99.90;;;;;;5044169;28;20082;-58
2022/07/06 09:23:56;;;;;;;4.03;0.90;;;18.30;99.90;;;;;;5046832;28;20485;-58
2022/07/06 09:26:23;;;;;;;3.60;1.10;;;18.40;99.90;;;;;;5043808;28;20438;-58
2022/07/06 09:28:49;;;;;;;2.28;0.80;;;18.40;99.90;;;;;;5043623;28;20116;-59
2022/07/06 09:31:15;;;;;;;1.92;0.88;;;18.40;99.90;;;;;;5041301;28;20090;-59
2022/07/06 09:34:08;;;;;;;2.00;0.70;;;18.70;99.90;;;;;;5044599;28;20040;-61
2022/07/06 09:36:44;;;;;;;2.22;0.60;;;18.70;99.90;;;;;;5044347;28;20116;-60
2022/07/06 09:39:26;;;;;;;3.15;0.93;;;18.60;99.90;;;;;;5034267;28;20093;-60
2022/07/06 09:41:53;;;;;;;4.47;0.77;;;18.90;99.90;;;;;;5044525;28;20524;-60
2022/07/06 09:44:27;;;;;;;1.30;0.57;;;19.10;99.90;;;;;;5039348;28;20025;-59
2022/07/06 09:46:56;;;;;;;3.15;0.60;;;19.10;99.90;;;;;;5040720;28;20025;-59
2022/07/06 09:49:22;;;;;;;2.92;0.77;;;19.10;99.90;;;;;;5049153;28;20028;-59
2022/07/06 09:51:55;;;;;;;2.92;0.60;;;19.10;99.90;;;;;;5041706;28;20025;-58
2022/07/06 09:54:21;;;;;;;2.20;0.70;;;19.50;99.90;;;;;;5039105;28;20032;-60
2022/07/06 09:56:50;;;;;;;3.80;0.77;;;19.70;99.90;;;;;;5056555;28;20056;-61
2022/07/06 09:59:18;;;;;;;3.15;0.63;;;19.50;99.90;;;;;;5043357;28;20028;-59
2022/07/06 10:01:45;;;;;;;3.08;0.80;;;19.60;99.90;;;;;;5046440;28;20016;-60
2022/07/06 10:04:12;;;;;;;2.63;0.88;;;19.60;99.90;;;;;;5042934;28;20547;-61
2022/07/06 10:06:39;;;;;;;3.33;0.70;;;19.70;99.90;;;;;;5051035;28;20025;-60
2022/07/06 10:09:08;;;;;;;2.17;0.85;;;19.60;99.90;;;;;;5036088;28;20191;-60
2022/07/06 10:11:42;;;;;;;3.08;0.82;;;19.70;99.90;;;;;;5039483;28;20495;-59
2022/07/06 10:14:09;;;;;;;2.42;0.82;;;19.70;99.90;;;;;;5043987;28;20024;-60
2022/07/06 10:16:37;;;;;;;5.50;2.03;;;20.30;99.90;;;;;;5045230;28;20104;-59
2022/07/06 10:19:05;;;;;;;6.05;3.17;;;20.60;99.90;;;;;;5039266;28;20044;-59
2022/07/06 10:21:31;;;;;;;4.85;1.25;;;20.40;99.90;;;;;;5046002;28;20610;-59
2022/07/06 10:23:59;;;;;;;36.72;14.57;;;20.30;99.90;;;;;;5042997;28;20056;-59
2022/07/06 10:26:25;;;;;;;3.47;1.20;;;20.00;99.90;;;;;;5040490;28;20040;-60
2022/07/06 10:28:52;;;;;;;4.18;0.80;;;20.20;99.90;;;;;;5033925;28;20036;-60
2022/07/06 10:31:20;;;;;;;3.45;0.90;;;20.20;99.90;;;;;;5042646;28;20032;-60
2022/07/06 10:33:47;;;;;;;3.30;0.82;;;19.90;99.90;;;;;;5037017;28;20033;-59
2022/07/06 10:36:14;;;;;;;1.73;0.70;;;19.90;99.90;;;;;;5049024;28;20216;-60
2022/07/06 10:38:40;;;;;;;4.78;1.25;;;20.00;99.90;;;;;;5033134;28;20104;-60
2022/07/06 10:41:09;;;;;;;3.92;0.90;;;19.80;99.90;;;;;;5043080;28;20710;-60
2022/07/06 10:43:44;;;;;;;4.25;0.70;;;19.80;99.90;;;;;;5032907;28;20020;-61
2022/07/06 10:46:15;;;;;;;3.75;0.75;;;20.30;99.90;;;;;;5034061;28;20029;-58
2022/07/06 10:48:45;;;;;;;2.92;0.70;;;20.40;99.90;;;;;;5039793;28;20025;-59
2022/07/06 10:51:27;;;;;;;3.25;0.68;;;20.60;99.90;;;;;;5050175;28;20025;-61
2022/07/06 10:53:58;;;;;;;2.20;0.63;;;20.50;99.90;;;;;;5035756;28;20420;-61
2022/07/06 10:56:45;;;;;;;4.95;1.00;;;20.70;99.90;;;;;;5041969;28;20704;-60
2022/07/06 10:59:22;;;;;;;4.85;1.00;;;20.50;99.90;;;;;;5050826;28;20056;-61
2022/07/06 11:02:14;;;;;;;4.50;1.00;;;20.70;99.90;;;;;;5045442;28;20036;-61
2022/07/06 11:04:44;;;;;;;3.97;0.70;;;20.40;99.90;;;;;;5035944;28;20021;-60
2022/07/06 11:07:15;;;;;;;3.78;0.88;;;20.60;99.90;;;;;;5042980;28;20039;-60
2022/07/06 11:09:47;;;;;;;5.20;0.85;;;20.70;99.90;;;;;;5047718;28;20021;-60
2022/07/06 11:12:20;;;;;;;6.82;0.90;;;20.70;99.90;;;;;;5044407;28;20073;-60
2022/07/06 11:14:47;;;;;;;1.60;0.60;;;20.90;99.90;;;;;;5043900;28;20683;-61
2022/07/06 11:17:14;;;;;;;2.25;0.93;;;20.50;99.90;;;;;;5049642;28;20064;-61
2022/07/06 11:20:08;;;;;;;3.47;0.88;;;20.50;99.90;;;;;;5042149;28;20151;-59
2022/07/06 11:22:36;;;;;;;;;;;20.40;99.90;;;;;;5050136;28;20028;-60
2022/07/06 11:25:02;;;;;;;1.65;0.60;;;20.30;99.90;;;;;;5039999;28;19955;-62
2022/07/06 11:27:28;;;;;;;1.58;0.60;;;20.60;99.90;;;;;;5041116;28;20033;-60
2022/07/06 11:29:54;;;;;;;2.28;0.95;;;20.30;99.90;;;;;;5043846;28;20453;-61
2022/07/06 11:32:25;;;;;;;5.03;0.85;;;20.50;99.90;;;;;;5051808;28;20060;-60
2022/07/06 11:34:51;;;;;;;5.22;0.70;;;20.60;99.90;;;;;;5041602;28;20381;-59
2022/07/06 11:37:20;;;;;;;0.85;0.40;;;20.80;99.90;;;;;;5046531;28;20063;-61
2022/07/06 11:39:47;;;;;;;1.67;0.50;;;20.90;99.90;;;;;;5047809;28;20100;-59
2022/07/06 11:42:16;;;;;;;2.30;0.75;;;20.80;99.90;;;;;;5045727;28;20497;-60
2022/07/06 11:44:42;;;;;;;4.03;0.63;;;20.70;99.90;;;;;;5043473;28;20644;-60
2022/07/06 11:47:09;;;;;;;4.25;0.85;;;20.70;99.90;;;;;;5040110;28;20074;-61
2022/07/06 11:49:37;;;;;;;3.60;0.70;;;20.70;99.90;;;;;;5048190;28;20031;-59
2022/07/06 11:52:11;;;;;;;2.13;0.95;;;20.60;99.90;;;;;;5048943;28;20350;-59
2022/07/06 11:54:37;;;;;;;4.72;0.80;;;20.50;99.90;;;;;;5041259;28;20013;-60
2022/07/06 11:57:06;;;;;;;3.35;0.80;;;20.60;99.90;;;;;;5036719;28;20033;-61
2022/07/06 11:59:33;;;;;;;2.55;0.70;;;20.70;99.90;;;;;;5047940;28;20430;-59
2022/07/06 12:02:07;;;;;;;2.45;0.93;;;20.80;99.90;;;;;;5040692;28;20021;-60
2022/07/06 12:04:33;;;;;;;;;;;21.10;99.90;;;;;;5044072;28;20452;-60
2022/07/06 12:07:11;;;;;;;5.20;0.80;;;20.80;99.90;;;;;;5039823;28;20514;-62
2022/07/06 12:09:38;;;;;;;3.05;0.80;;;20.90;99.90;;;;;;5045002;28;20033;-60
2022/07/06 12:12:05;;;;;;;2.20;0.60;;;20.90;99.90;;;;;;5042443;28;20406;-60
2022/07/06 12:14:33;;;;;;;3.97;0.77;;;20.90;99.90;;;;;;5041343;28;20030;-61
2022/07/06 12:17:06;;;;;;;4.10;0.90;;;21.10;99.90;;;;;;5045065;28;20037;-59
2022/07/06 12:19:36;;;;;;;3.50;1.02;;;20.80;99.90;;;;;;5045243;28;20092;-60
2022/07/06 12:22:02;;;;;;;3.65;1.00;;;21.00;99.90;;;;;;5047310;28;20033;-59
2022/07/06 12:24:32;;;;;;;3.20;0.80;;;21.10;99.90;;;;;;5040580;28;20033;-61
2022/07/06 12:27:08;;;;;;;6.38;0.98;;;21.10;99.90;;;;;;5044188;28;20021;-60
2022/07/06 12:29:34;;;;;;;3.80;0.95;;;21.00;99.90;;;;;;5043381;28;20056;-60
2022/07/06 12:32:00;;;;;;;2.90;0.80;;;21.20;99.90;;;;;;5046067;28;20067;-61
2022/07/06 12:34:28;;;;;;;5.90;0.82;;;21.30;99.90;;;;;;5039873;28;20023;-60
2022/07/06 12:36:58;;;;;;;3.95;0.70;;;21.20;99.90;;;;;;5051752;28;20091;-60
2022/07/06 12:39:28;;;;;;;2.85;0.88;;;21.20;99.90;;;;;;5043447;28;20009;-60
2022/07/06 12:42:05;;;;;;;2.00;0.73;;;20.70;99.90;;;;;;5043625;28;20397;-59
2022/07/06 12:44:31;;;;;;;2.83;0.90;;;20.50;99.90;;;;;;5048465;28;20025;-60
2022/07/06 12:47:04;;;;;;;3.72;1.15;;;20.50;99.90;;;;;;5043669;28;20024;-59
2022/07/06 12:49:30;;;;;;;3.28;1.10;;;20.60;99.90;;;;;;5049817;28;20091;-59
2022/07/06 12:52:06;;;;;;;3.58;0.63;;;20.70;99.90;;;;;;5043838;28;20032;-61